Time;durP1;ratioP1;P1;durP2;ratioP2;P2;SDS_P1;SDS_P2;PMS_P1;PMS_P2;Temp;Humidity;BMP_temperature;BMP_pressure;BME280_temperature;BME280_humidity;BME280_pressure;Samples;Min_cycle;Max_cycle;Signal;HPM_P1;HPM_P2
2024/01/17 00:00:28;;;;;;;12.57;8.35;;;;;;;;;;5048493;28;20025;-76
2024/01/17 00:02:54;;;;;;;12.10;8.10;;;;;;;;;;5046837;28;20535;-76
2024/01/17 00:05:20;;;;;;;11.95;8.35;;;;;;;;;;5046943;28;20032;-77
2024/01/17 00:07:46;;;;;;;16.98;9.52;;;;;;;;;;5046717;28;20021;-76
2024/01/17 00:10:13;;;;;;;15.93;9.55;;;;;;;;;;5046225;28;20017;-76
2024/01/17 00:12:39;;;;;;;13.93;8.90;;;;;;;;;;5046527;28;20020;-76
2024/01/17 00:15:05;;;;;;;14.05;8.98;;;;;;;;;;5046718;28;20419;-76
2024/01/17 00:17:31;;;;;;;11.85;9.38;;;;;;;;;;5048196;28;20017;-76
2024/01/17 00:19:57;;;;;;;14.20;9.15;;;;;;;;;;5046452;28;20063;-76
2024/01/17 00:22:23;;;;;;;14.02;10.25;;;;;;;;;;5047816;28;20021;-76
2024/01/17 00:24:51;;;;;;;11.90;9.98;;;;;;;;;;5047610;28;20055;-76
2024/01/17 00:27:18;;;;;;;14.68;9.88;;;;;;;;;;5048534;28;20055;-76
2024/01/17 00:29:45;;;;;;;13.05;10.63;;;;;;;;;;5047388;28;20028;-77
2024/01/17 00:32:11;;;;;;;14.38;10.88;;;;;;;;;;5047779;28;20651;-77
2024/01/17 00:34:37;;;;;;;15.05;11.20;;;;;;;;;;5047717;28;20368;-76
2024/01/17 00:37:03;;;;;;;16.20;11.98;;;;;;;;;;5047655;28;20072;-76
2024/01/17 00:39:30;;;;;;;13.48;11.18;;;;;;;;;;5046052;28;20040;-76
2024/01/17 00:41:55;;;;;;;16.42;12.32;;;;;;;;;;5047639;28;20051;-77
2024/01/17 00:44:26;;;;;;;14.32;11.32;;;;;;;;;;5048114;28;20044;-76
2024/01/17 00:46:52;;;;;;;17.13;12.35;;;;;;;;;;5047232;28;20060;-76
2024/01/17 00:49:18;;;;;;;15.40;12.25;;;;;;;;;;5047474;28;20044;-76
2024/01/17 00:51:45;;;;;;;18.30;12.52;;;;;;;;;;5048058;28;20013;-76
2024/01/17 00:54:10;;;;;;;18.33;12.73;;;;;;;;;;5047490;28;20374;-76
2024/01/17 00:56:37;;;;;;;19.25;13.35;;;;;;;;;;5046944;28;20017;-76
2024/01/17 00:59:04;;;;;;;17.30;12.70;;;;;;;;;;5045961;28;20029;-76
2024/01/17 01:01:30;;;;;;;16.60;12.45;;;;;;;;;;5046264;28;20021;-76
2024/01/17 01:03:56;;;;;;;18.30;12.57;;;;;;;;;;5046541;28;20017;-76
2024/01/17 01:06:22;;;;;;;18.00;12.82;;;;;;;;;;5047563;28;20029;-76
2024/01/17 01:08:49;;;;;;;17.05;12.63;;;;;;;;;;5047010;28;20564;-76
2024/01/17 01:11:15;;;;;;;17.88;13.35;;;;;;;;;;5045726;28;20040;-76
2024/01/17 01:13:41;;;;;;;17.67;13.65;;;;;;;;;;5049988;28;20420;-76
2024/01/17 01:16:10;;;;;;;19.35;14.13;;;;;;;;;;5049741;28;20028;-76
2024/01/17 01:18:36;;;;;;;16.98;13.10;;;;;;;;;;5051097;28;20017;-76
2024/01/17 01:21:02;;;;;;;17.83;13.02;;;;;;;;;;5051518;28;20032;-76
2024/01/17 01:23:28;;;;;;;17.98;13.35;;;;;;;;;;5050857;28;20017;-76
2024/01/17 01:25:54;;;;;;;19.15;13.15;;;;;;;;;;5051265;28;20025;-76
2024/01/17 01:28:20;;;;;;;16.58;13.60;;;;;;;;;;5049555;28;20016;-76
2024/01/17 01:30:46;;;;;;;17.88;14.05;;;;;;;;;;5049124;28;20013;-76
2024/01/17 01:33:12;;;;;;;17.83;12.93;;;;;;;;;;5050721;28;20381;-76
2024/01/17 01:35:38;;;;;;;17.98;12.95;;;;;;;;;;5050885;28;20052;-76
2024/01/17 01:38:04;;;;;;;15.60;13.90;;;;;;;;;;5048901;28;20405;-76
2024/01/17 01:40:33;;;;;;;18.40;13.23;;;;;;;;;;5050599;28;20476;-76
2024/01/17 01:43:00;;;;;;;16.00;13.35;;;;;;;;;;5050451;28;20511;-76
2024/01/17 01:45:26;;;;;;;18.95;13.27;;;;;;;;;;5049166;28;20118;-76
2024/01/17 01:47:52;;;;;;;16.40;13.25;;;;;;;;;;5049072;28;20048;-76
2024/01/17 01:50:18;;;;;;;17.13;12.43;;;;;;;;;;5049498;28;20200;-76
2024/01/17 01:52:46;;;;;;;15.63;12.65;;;;;;;;;;5050316;28;20465;-76
2024/01/17 01:55:13;;;;;;;16.13;13.23;;;;;;;;;;5048796;28;20173;-76
2024/01/17 01:57:40;;;;;;;16.80;12.93;;;;;;;;;;5050342;28;20255;-77
2024/01/17 02:00:07;;;;;;;18.02;13.05;;;;;;;;;;5049150;28;20017;-76
2024/01/17 02:02:33;;;;;;;19.17;13.13;;;;;;;;;;5050252;28;20021;-76
2024/01/17 02:05:01;;;;;;;17.23;12.95;;;;;;;;;;5050126;28;20100;-76
2024/01/17 02:07:28;;;;;;;17.83;13.60;;;;;;;;;;5048992;28;20074;-77
2024/01/17 02:09:55;;;;;;;19.25;13.68;;;;;;;;;;5049992;28;20024;-76
2024/01/17 02:12:21;;;;;;;17.00;13.40;;;;;;;;;;5048935;28;20044;-76
2024/01/17 02:14:47;;;;;;;19.98;14.07;;;;;;;;;;5050409;28;20009;-76
2024/01/17 02:17:13;;;;;;;17.40;12.77;;;;;;;;;;5048684;28;20009;-76
2024/01/17 02:19:41;;;;;;;16.52;13.15;;;;;;;;;;5048439;28;20013;-77
2024/01/17 02:22:07;;;;;;;16.20;12.90;;;;;;;;;;5050412;28;20017;-76
2024/01/17 02:24:34;;;;;;;19.13;13.50;;;;;;;;;;5048658;28;20070;-76
2024/01/17 02:27:00;;;;;;;16.20;12.88;;;;;;;;;;5048087;28;20180;-76
2024/01/17 02:29:27;;;;;;;16.88;13.43;;;;;;;;;;5049922;28;20466;-76
2024/01/17 02:31:54;;;;;;;17.88;13.18;;;;;;;;;;5049932;28;20041;-76
2024/01/17 02:34:20;;;;;;;15.27;13.52;;;;;;;;;;5048555;28;20017;-76
2024/01/17 02:36:46;;;;;;;16.42;13.30;;;;;;;;;;5047667;28;20504;-76
2024/01/17 02:39:12;;;;;;;17.38;13.50;;;;;;;;;;5048326;28;20112;-76
2024/01/17 02:41:38;;;;;;;19.33;14.18;;;;;;;;;;5048368;28;20470;-76
2024/01/17 02:44:04;;;;;;;21.02;14.68;;;;;;;;;;5048308;28;20033;-76
2024/01/17 02:46:30;;;;;;;17.40;14.23;;;;;;;;;;5047993;28;20099;-76
2024/01/17 02:48:57;;;;;;;16.40;14.18;;;;;;;;;;5050041;28;20102;-76
2024/01/17 02:51:23;;;;;;;19.17;15.02;;;;;;;;;;5048242;28;20021;-76
2024/01/17 02:53:49;;;;;;;19.77;14.98;;;;;;;;;;5048965;28;20009;-76
2024/01/17 02:56:16;;;;;;;19.63;15.13;;;;;;;;;;5049275;28;20028;-76
2024/01/17 02:58:42;;;;;;;18.90;15.30;;;;;;;;;;5048230;28;20017;-76
2024/01/17 03:01:08;;;;;;;21.58;15.10;;;;;;;;;;5049183;28;20009;-76
2024/01/17 03:03:34;;;;;;;20.65;16.13;;;;;;;;;;5049185;28;20027;-76
2024/01/17 03:06:00;;;;;;;20.70;15.27;;;;;;;;;;5048784;28;20098;-76
2024/01/17 03:08:26;;;;;;;21.58;15.93;;;;;;;;;;5048810;28;20021;-77
2024/01/17 03:10:52;;;;;;;18.67;15.93;;;;;;;;;;5049269;28;20013;-76
2024/01/17 03:13:18;;;;;;;21.33;15.65;;;;;;;;;;5048557;28;20017;-76
2024/01/17 03:15:44;;;;;;;20.50;16.00;;;;;;;;;;5047475;28;20066;-76
2024/01/17 03:18:13;;;;;;;21.10;16.73;;;;;;;;;;5047356;28;20343;-76
2024/01/17 03:20:42;;;;;;;20.77;17.25;;;;;;;;;;5047719;28;20066;-76
2024/01/17 03:23:08;;;;;;;22.75;16.92;;;;;;;;;;5048751;28;20052;-77
2024/01/17 03:25:34;;;;;;;24.38;17.40;;;;;;;;;;5047675;28;20029;-77
2024/01/17 03:28:00;;;;;;;23.95;17.75;;;;;;;;;;5047203;28;20013;-77
2024/01/17 03:30:27;;;;;;;23.23;17.05;;;;;;;;;;5047100;28;20014;-76
2024/01/17 03:32:53;;;;;;;23.30;17.23;;;;;;;;;;5049089;28;20472;-76
2024/01/17 03:35:19;;;;;;;22.30;17.73;;;;;;;;;;5048284;28;20047;-76
2024/01/17 03:37:45;;;;;;;22.40;18.13;;;;;;;;;;5048022;28;20010;-76
2024/01/17 03:40:11;;;;;;;24.40;18.15;;;;;;;;;;5048521;28;20060;-76
2024/01/17 03:42:37;;;;;;;23.15;18.27;;;;;;;;;;5048578;28;20021;-76
2024/01/17 03:45:03;;;;;;;21.95;18.30;;;;;;;;;;5048312;28;20038;-76
2024/01/17 03:47:29;;;;;;;22.98;18.80;;;;;;;;;;5048477;28;20047;-76
2024/01/17 03:49:55;;;;;;;23.42;18.85;;;;;;;;;;5048379;28;20044;-76
2024/01/17 03:52:21;;;;;;;24.35;18.45;;;;;;;;;;5048118;28;20088;-76
2024/01/17 03:54:47;;;;;;;23.65;19.20;;;;;;;;;;5048309;28;20364;-76
2024/01/17 03:57:13;;;;;;;23.90;18.30;;;;;;;;;;5046383;28;20044;-76
2024/01/17 03:59:45;;;;;;;22.67;18.90;;;;;;;;;;5048346;28;20471;-76
2024/01/17 04:02:11;;;;;;;27.42;18.83;;;;;;;;;;5048697;28;20017;-76
2024/01/17 04:04:40;;;;;;;23.80;18.95;;;;;;;;;;5046876;28;20017;-76
2024/01/17 04:07:06;;;;;;;26.10;19.35;;;;;;;;;;5046367;28;20033;-76
2024/01/17 04:09:32;;;;;;;23.10;19.13;;;;;;;;;;5047932;28;20462;-76
2024/01/17 04:11:58;;;;;;;25.13;19.45;;;;;;;;;;5048425;28;20017;-76
2024/01/17 04:14:25;;;;;;;27.27;20.15;;;;;;;;;;5046785;28;20423;-76
2024/01/17 04:16:51;;;;;;;27.02;20.17;;;;;;;;;;5048255;28;20016;-76
2024/01/17 04:19:17;;;;;;;24.70;19.90;;;;;;;;;;5048247;28;20025;-76
2024/01/17 04:21:43;;;;;;;25.42;20.23;;;;;;;;;;5048074;28;20363;-76
2024/01/17 04:24:09;;;;;;;23.60;19.42;;;;;;;;;;5047907;28;20037;-76
2024/01/17 04:26:35;;;;;;;25.67;20.05;;;;;;;;;;5046774;28;20143;-76
2024/01/17 04:29:01;;;;;;;25.42;19.52;;;;;;;;;;5047528;28;20016;-76
2024/01/17 04:31:27;;;;;;;27.98;19.83;;;;;;;;;;5047940;28;20070;-76
2024/01/17 04:33:54;;;;;;;23.80;19.27;;;;;;;;;;5047296;28;20013;-76
2024/01/17 04:36:20;;;;;;;25.67;20.13;;;;;;;;;;5046574;28;20559;-76
2024/01/17 04:38:47;;;;;;;26.77;19.80;;;;;;;;;;5047766;28;20021;-77
2024/01/17 04:41:14;;;;;;;25.15;19.05;;;;;;;;;;5047602;28;20044;-76
2024/01/17 04:43:46;;;;;;;23.42;19.30;;;;;;;;;;5047742;28;20064;-76
2024/01/17 04:46:14;;;;;;;22.30;18.45;;;;;;;;;;5047984;28;20075;-77
2024/01/17 04:48:40;;;;;;;23.85;19.58;;;;;;;;;;5049135;28;20646;-76
2024/01/17 04:51:07;;;;;;;23.33;19.50;;;;;;;;;;5051442;28;20040;-76
2024/01/17 04:53:33;;;;;;;27.45;20.20;;;;;;;;;;5050321;28;20017;-76
2024/01/17 04:55:59;;;;;;;28.02;20.27;;;;;;;;;;5050218;28;20025;-76
2024/01/17 04:58:26;;;;;;;26.17;20.15;;;;;;;;;;5051356;28;20284;-76
2024/01/17 05:00:52;;;;;;;27.42;20.15;;;;;;;;;;5051163;28;20544;-76
2024/01/17 05:03:18;;;;;;;26.73;19.77;;;;;;;;;;5050402;28;20616;-76
2024/01/17 05:05:44;;;;;;;29.85;20.45;;;;;;;;;;5051273;28;20098;-76
2024/01/17 05:08:11;;;;;;;27.33;20.90;;;;;;;;;;5050842;28;20096;-76
2024/01/17 05:10:37;;;;;;;25.75;21.33;;;;;;;;;;5051068;28;20063;-76
2024/01/17 05:13:03;;;;;;;27.00;22.20;;;;;;;;;;5051289;28;20100;-76
2024/01/17 05:15:29;;;;;;;27.48;22.08;;;;;;;;;;5049857;28;20031;-76
2024/01/17 05:17:55;;;;;;;27.95;21.63;;;;;;;;;;5049287;28;20029;-77
2024/01/17 05:20:21;;;;;;;28.58;21.70;;;;;;;;;;5051637;28;20519;-76
2024/01/17 05:22:47;;;;;;;28.60;22.27;;;;;;;;;;5050691;28;20229;-76
2024/01/17 05:25:13;;;;;;;30.25;23.13;;;;;;;;;;5049341;28;20052;-76
2024/01/17 05:27:39;;;;;;;28.20;21.98;;;;;;;;;;5050666;28;20029;-76
2024/01/17 05:30:09;;;;;;;26.45;22.42;;;;;;;;;;5049472;28;20013;-76
2024/01/17 05:32:37;;;;;;;29.75;23.20;;;;;;;;;;5051084;28;20504;-76
2024/01/17 05:35:04;;;;;;;33.47;23.55;;;;;;;;;;5049956;28;20342;-76
2024/01/17 05:37:30;;;;;;;29.33;22.77;;;;;;;;;;5050620;28;20234;-77
2024/01/17 05:39:56;;;;;;;32.47;23.63;;;;;;;;;;5051071;28;20013;-77
2024/01/17 05:42:22;;;;;;;30.63;23.75;;;;;;;;;;5049352;28;20109;-76
2024/01/17 05:44:48;;;;;;;33.00;25.10;;;;;;;;;;5050401;28;20397;-76
2024/01/17 05:47:14;;;;;;;30.83;24.15;;;;;;;;;;5050350;28;20505;-76
2024/01/17 05:49:40;;;;;;;31.83;25.60;;;;;;;;;;5050651;28;20263;-76
2024/01/17 05:52:06;;;;;;;37.03;26.58;;;;;;;;;;5050820;28;20021;-76
2024/01/17 05:54:32;;;;;;;37.53;26.42;;;;;;;;;;5048806;28;20032;-76
2024/01/17 05:56:58;;;;;;;32.85;25.95;;;;;;;;;;5050381;28;20023;-77
2024/01/17 05:59:24;;;;;;;34.65;25.90;;;;;;;;;;5049912;28;20377;-76
2024/01/17 06:01:50;;;;;;;34.58;26.67;;;;;;;;;;5050466;28;20031;-76
2024/01/17 06:04:17;;;;;;;33.03;26.88;;;;;;;;;;5050153;28;20532;-76
2024/01/17 06:06:43;;;;;;;32.65;26.33;;;;;;;;;;5050278;28;20037;-76
2024/01/17 06:09:09;;;;;;;37.45;27.95;;;;;;;;;;5049982;28;20084;-77
2024/01/17 06:11:35;;;;;;;36.50;27.55;;;;;;;;;;5050230;28;20112;-76
2024/01/17 06:14:01;;;;;;;36.40;25.95;;;;;;;;;;5050275;28;20084;-77
2024/01/17 06:16:27;;;;;;;35.55;26.55;;;;;;;;;;5048633;28;20020;-77
2024/01/17 06:18:54;;;;;;;34.47;26.60;;;;;;;;;;5050224;28;20017;-77
2024/01/17 06:21:20;;;;;;;35.97;27.83;;;;;;;;;;5049623;28;20017;-77
2024/01/17 06:23:47;;;;;;;36.38;26.35;;;;;;;;;;5049757;28;20074;-77
2024/01/17 06:26:13;;;;;;;35.45;27.60;;;;;;;;;;5049953;28;20083;-77
2024/01/17 06:28:39;;;;;;;34.40;25.70;;;;;;;;;;5048959;28;20282;-76
2024/01/17 06:31:05;;;;;;;31.25;26.48;;;;;;;;;;5049639;28;20473;-77
2024/01/17 06:33:31;;;;;;;38.15;27.08;;;;;;;;;;5050455;28;20056;-77
2024/01/17 06:35:58;;;;;;;33.42;26.85;;;;;;;;;;5050206;28;20424;-77
2024/01/17 06:38:24;;;;;;;33.95;27.00;;;;;;;;;;5048523;28;20091;-78
2024/01/17 06:40:50;;;;;;;35.50;26.55;;;;;;;;;;5049804;28;20021;-78
2024/01/17 06:43:16;;;;;;;34.85;26.02;;;;;;;;;;5049788;28;20021;-78
2024/01/17 06:45:43;;;;;;;36.08;24.80;;;;;;;;;;5057338;28;20017;-77
2024/01/17 06:48:09;;;;;;;34.78;24.98;;;;;;;;;;5055446;28;20020;-78
2024/01/17 06:50:35;;;;;;;34.47;24.08;;;;;;;;;;5056945;28;20315;-77
2024/01/17 06:53:01;;;;;;;32.80;24.45;;;;;;;;;;5049340;28;20461;-78
2024/01/17 06:55:27;;;;;;;30.23;23.67;;;;;;;;;;5045923;28;20018;-78
2024/01/17 06:57:53;;;;;;;32.67;24.42;;;;;;;;;;5049252;28;20009;-78
2024/01/17 07:00:20;;;;;;;31.13;24.95;;;;;;;;;;5046703;28;20483;-78
2024/01/17 07:02:47;;;;;;;34.35;25.83;;;;;;;;;;5047812;28;20075;-78
2024/01/17 07:05:13;;;;;;;33.83;26.30;;;;;;;;;;5049117;28;20036;-78
2024/01/17 07:07:39;;;;;;;31.02;24.60;;;;;;;;;;5046797;28;20020;-78
2024/01/17 07:10:06;;;;;;;33.08;24.55;;;;;;;;;;5047921;28;20037;-78
2024/01/17 07:12:32;;;;;;;31.73;23.70;;;;;;;;;;5048821;28;20028;-78
2024/01/17 07:14:58;;;;;;;31.77;22.88;;;;;;;;;;5049069;28;20539;-78
2024/01/17 07:17:24;;;;;;;31.50;23.35;;;;;;;;;;5048502;28;20028;-77
2024/01/17 07:19:51;;;;;;;29.25;22.48;;;;;;;;;;5049369;28;20021;-77
2024/01/17 07:22:17;;;;;;;27.77;21.58;;;;;;;;;;5048385;28;20017;-77
2024/01/17 07:24:45;;;;;;;27.58;20.10;;;;;;;;;;5049306;28;20014;-77
2024/01/17 07:27:11;;;;;;;27.13;19.75;;;;;;;;;;5047369;28;20057;-77
2024/01/17 07:29:37;;;;;;;25.73;18.95;;;;;;;;;;5047513;28;20043;-78
2024/01/17 07:32:03;;;;;;;27.73;19.83;;;;;;;;;;5049795;28;20017;-76
2024/01/17 07:34:29;;;;;;;25.42;20.58;;;;;;;;;;5047754;28;20021;-76
2024/01/17 07:36:55;;;;;;;28.88;20.70;;;;;;;;;;5046848;28;20045;-76
2024/01/17 07:39:22;;;;;;;27.23;20.60;;;;;;;;;;5047065;28;20504;-78
2024/01/17 07:41:48;;;;;;;30.48;20.48;;;;;;;;;;5048853;28;20056;-77
2024/01/17 07:44:14;;;;;;;25.45;19.30;;;;;;;;;;5047285;28;20495;-76
2024/01/17 07:46:40;;;;;;;30.00;20.48;;;;;;;;;;5047067;28;20048;-77
2024/01/17 07:49:06;;;;;;;24.35;19.45;;;;;;;;;;5046710;28;20032;-78
2024/01/17 07:51:33;;;;;;;26.30;19.80;;;;;;;;;;5048688;28;20380;-77
2024/01/17 07:53:59;;;;;;;28.90;20.73;;;;;;;;;;5046966;28;20487;-78
2024/01/17 07:56:25;;;;;;;27.52;21.20;;;;;;;;;;5048129;28;20495;-77
2024/01/17 07:58:51;;;;;;;29.45;21.00;;;;;;;;;;5047611;28;20048;-77
2024/01/17 08:01:17;;;;;;;29.90;21.50;;;;;;;;;;5047877;28;20151;-77
2024/01/17 08:03:43;;;;;;;28.20;21.92;;;;;;;;;;5047433;28;20051;-77
2024/01/17 08:06:09;;;;;;;26.92;21.85;;;;;;;;;;5047373;28;20017;-77
2024/01/17 08:08:36;;;;;;;31.42;22.75;;;;;;;;;;5046048;28;20485;-77
2024/01/17 08:11:02;;;;;;;30.13;22.00;;;;;;;;;;5046319;28;20017;-78
2024/01/17 08:13:28;;;;;;;29.92;23.13;;;;;;;;;;5045747;28;20020;-77
2024/01/17 08:15:54;;;;;;;30.13;23.17;;;;;;;;;;5048016;28;20012;-77
2024/01/17 08:18:20;;;;;;;30.00;22.60;;;;;;;;;;5046796;28;20380;-77
2024/01/17 08:20:46;;;;;;;30.95;23.08;;;;;;;;;;5048369;28;20492;-77
2024/01/17 08:23:12;;;;;;;29.42;21.30;;;;;;;;;;5046841;28;20095;-78
2024/01/17 08:25:38;;;;;;;29.02;22.02;;;;;;;;;;5046575;28;20027;-77
2024/01/17 08:28:05;;;;;;;27.30;21.13;;;;;;;;;;5047789;28;20017;-78
2024/01/17 08:30:31;;;;;;;26.67;20.58;;;;;;;;;;5048475;28;20515;-77
2024/01/17 08:32:57;;;;;;;27.63;20.95;;;;;;;;;;5047585;28;20540;-76
2024/01/17 08:35:23;;;;;;;26.73;20.17;;;;;;;;;;5048831;28;20183;-76
2024/01/17 08:37:49;;;;;;;31.85;20.85;;;;;;;;;;5046702;28;20022;-76
2024/01/17 08:40:15;;;;;;;27.70;20.15;;;;;;;;;;5048018;28;20028;-77
2024/01/17 08:42:44;;;;;;;25.63;19.00;;;;;;;;;;5046420;28;20051;-77
2024/01/17 08:45:11;;;;;;;24.75;18.58;;;;;;;;;;5045161;28;20535;-78
2024/01/17 08:47:38;;;;;;;24.83;19.60;;;;;;;;;;5046443;28;20155;-77
2024/01/17 08:50:04;;;;;;;24.40;18.48;;;;;;;;;;5048252;28;20462;-78
2024/01/17 08:52:30;;;;;;;25.40;18.15;;;;;;;;;;5047561;28;20021;-76
2024/01/17 08:54:57;;;;;;;23.90;18.30;;;;;;;;;;5047931;28;20040;-76
2024/01/17 08:57:23;;;;;;;24.10;18.10;;;;;;;;;;5047705;28;20060;-76
2024/01/17 08:59:49;;;;;;;26.45;18.02;;;;;;;;;;5045687;28;20021;-76
2024/01/17 09:02:15;;;;;;;21.38;17.67;;;;;;;;;;5047279;28;20508;-75
2024/01/17 09:04:41;;;;;;;26.35;18.77;;;;;;;;;;5045245;28;20108;-75
2024/01/17 09:07:08;;;;;;;25.40;18.55;;;;;;;;;;5043353;28;20028;-82
2024/01/17 09:09:34;;;;;;;26.42;18.20;;;;;;;;;;5046887;28;20337;-76
2024/01/17 09:12:00;;;;;;;23.73;17.60;;;;;;;;;;5045779;28;20096;-75
2024/01/17 09:14:26;;;;;;;23.63;17.83;;;;;;;;;;5032475;28;20745;-75
2024/01/17 09:16:53;;;;;;;21.10;16.77;;;;;;;;;;5036415;28;20155;-75
2024/01/17 09:19:20;;;;;;;23.70;16.35;;;;;;;;;;5044333;28;20033;-75
2024/01/17 09:21:47;;;;;;;22.63;16.23;;;;;;;;;;5046211;28;20051;-76
2024/01/17 09:24:13;;;;;;;24.58;16.77;;;;;;;;;;5044198;28;20021;-75
2024/01/17 09:26:39;;;;;;;23.02;16.48;;;;;;;;;;5047748;28;20029;-75
2024/01/17 09:29:05;;;;;;;22.48;15.52;;;;;;;;;;5045828;28;20032;-75
2024/01/17 09:31:31;;;;;;;20.45;15.50;;;;;;;;;;5034398;28;20087;-75
2024/01/17 09:33:57;;;;;;;20.67;15.55;;;;;;;;;;5047952;28;20067;-74
2024/01/17 09:36:23;;;;;;;19.45;14.80;;;;;;;;;;5051198;28;20067;-75
2024/01/17 09:38:49;;;;;;;20.80;14.70;;;;;;;;;;5050030;28;20413;-75
2024/01/17 09:41:15;;;;;;;20.63;14.02;;;;;;;;;;5044498;28;20130;-75
2024/01/17 09:43:41;;;;;;;17.98;14.40;;;;;;;;;;5050954;28;20476;-74
2024/01/17 09:46:12;;;;;;;20.80;14.70;;;;;;;;;;5050871;28;20025;-75
2024/01/17 09:48:38;;;;;;;17.42;13.90;;;;;;;;;;5050947;28;20013;-75
2024/01/17 09:51:05;;;;;;;18.38;13.65;;;;;;;;;;5048741;28;20272;-74
2024/01/17 09:53:32;;;;;;;21.35;14.05;;;;;;;;;;5049739;28;20028;-75
2024/01/17 09:55:59;;;;;;;17.50;13.27;;;;;;;;;;5048886;28;20104;-75
2024/01/17 09:58:27;;;;;;;17.90;13.18;;;;;;;;;;5048070;28;20064;-75
2024/01/17 10:00:55;;;;;;;19.80;12.93;;;;;;;;;;5048991;28;20017;-75
2024/01/17 10:03:22;;;;;;;15.27;12.60;;;;;;;;;;5040530;28;20469;-75
2024/01/17 10:05:51;;;;;;;18.10;13.23;;;;;;;;;;5043222;28;20025;-75
2024/01/17 10:08:19;;;;;;;16.08;13.27;;;;;;;;;;5039355;28;20017;-75
2024/01/17 10:10:45;;;;;;;16.65;13.70;;;;;;;;;;5049023;28;20017;-75
2024/01/17 10:13:11;;;;;;;19.50;14.27;;;;;;;;;;5047904;28;20025;-75
2024/01/17 10:15:45;;;;;;;18.17;14.00;;;;;;;;;;5048067;28;20045;-75
2024/01/17 10:18:12;;;;;;;20.55;13.77;;;;;;;;;;5048280;28;20044;-75
2024/01/17 10:20:38;;;;;;;20.05;13.43;;;;;;;;;;5048104;28;20063;-75
2024/01/17 10:23:04;;;;;;;19.60;13.63;;;;;;;;;;5049441;28;20021;-75
2024/01/17 10:25:40;;;;;;;19.08;13.27;;;;;;;;;;5048300;28;20060;-75
2024/01/17 10:28:06;;;;;;;19.63;13.68;;;;;;;;;;5047979;28;20017;-75
2024/01/17 10:30:32;;;;;;;18.10;14.00;;;;;;;;;;5047343;28;20012;-75
2024/01/17 10:32:58;;;;;;;17.77;13.27;;;;;;;;;;5049360;28;20469;-75
2024/01/17 10:35:25;;;;;;;17.73;13.23;;;;;;;;;;5048939;28;20035;-75
2024/01/17 10:37:54;;;;;;;17.73;12.98;;;;;;;;;;5048571;28;20396;-75
2024/01/17 10:40:20;;;;;;;17.80;12.15;;;;;;;;;;5042234;28;20401;-75
2024/01/17 10:42:46;;;;;;;15.52;12.18;;;;;;;;;;5041409;28;20692;-75
2024/01/17 10:45:23;;;;;;;16.27;12.65;;;;;;;;;;5042101;28;20025;-75
2024/01/17 10:47:49;;;;;;;16.75;12.18;;;;;;;;;;5043357;28;20032;-75
2024/01/17 10:50:20;;;;;;;16.05;11.70;;;;;;;;;;5042788;28;20014;-76
2024/01/17 10:52:47;;;;;;;15.40;12.25;;;;;;;;;;5044104;28;20109;-75
2024/01/17 10:55:15;;;;;;;18.35;12.30;;;;;;;;;;5047361;28;20017;-76
2024/01/17 10:57:42;;;;;;;19.60;12.77;;;;;;;;;;5048763;28;20078;-75
2024/01/17 11:00:14;;;;;;;15.90;13.15;;;;;;;;;;5044755;28;20033;-75
2024/01/17 11:02:41;;;;;;;18.25;12.00;;;;;;;;;;5046519;28;20017;-75
2024/01/17 11:05:10;;;;;;;15.85;12.27;;;;;;;;;;5039823;28;20032;-75
2024/01/17 11:07:37;;;;;;;18.02;11.73;;;;;;;;;;5033638;28;20021;-75
2024/01/17 11:10:04;;;;;;;14.70;11.32;;;;;;;;;;5041875;28;20022;-76
2024/01/17 11:12:33;;;;;;;17.08;11.43;;;;;;;;;;5033275;28;20217;-76
2024/01/17 11:14:59;;;;;;;16.00;11.45;;;;;;;;;;5046575;28;20508;-76
2024/01/17 11:17:28;;;;;;;16.95;11.50;;;;;;;;;;5049125;28;20041;-76
2024/01/17 11:19:55;;;;;;;14.85;10.82;;;;;;;;;;5040482;28;20079;-75
2024/01/17 11:22:22;;;;;;;16.10;11.50;;;;;;;;;;5045839;28;20485;-76
2024/01/17 11:25:10;;;;;;;16.67;11.30;;;;;;;;;;5047627;28;20029;-76
2024/01/17 11:27:36;;;;;;;14.90;11.90;;;;;;;;;;5038522;28;20041;-76
2024/01/17 11:30:20;;;;;;;17.27;11.90;;;;;;;;;;5047292;28;20052;-76
2024/01/17 11:32:46;;;;;;;20.38;12.18;;;;;;;;;;5047126;28;20021;-76
2024/01/17 11:35:32;;;;;;;15.93;11.52;;;;;;;;;;5049086;28;20029;-77
2024/01/17 11:37:58;;;;;;;16.05;12.10;;;;;;;;;;5048321;28;20060;-77
2024/01/17 11:40:24;;;;;;;18.02;13.23;;;;;;;;;;5041781;28;20423;-80
2024/01/17 11:42:50;;;;;;;20.60;13.18;;;;;;;;;;5047695;28;20496;-79
2024/01/17 11:45:16;;;;;;;19.20;13.40;;;;;;;;;;5056682;28;20024;-79
2024/01/17 11:47:52;;;;;;;20.02;13.25;;;;;;;;;;5050560;28;20447;-79
2024/01/17 11:50:20;;;;;;;20.17;13.75;;;;;;;;;;5048772;28;20183;-79
2024/01/17 11:52:46;;;;;;;21.10;13.85;;;;;;;;;;5058009;28;20021;-79
2024/01/17 11:55:12;;;;;;;24.52;16.88;;;;;;;;;;5058674;28;20009;-78
2024/01/17 11:57:39;;;;;;;22.42;15.80;;;;;;;;;;5057534;28;20024;-82
2024/01/17 12:00:06;;;;;;;22.10;15.35;;;;;;;;;;5055939;28;20028;-78
2024/01/17 12:02:36;;;;;;;26.17;16.85;;;;;;;;;;5040611;28;20052;-78
2024/01/17 12:05:03;;;;;;;24.40;15.20;;;;;;;;;;5040945;28;20009;-78
2024/01/17 12:07:30;;;;;;;22.45;15.15;;;;;;;;;;5047242;28;20474;-78
2024/01/17 12:09:57;;;;;;;20.88;14.65;;;;;;;;;;5046632;28;20025;-78
2024/01/17 12:12:23;;;;;;;21.90;15.13;;;;;;;;;;5046887;28;20666;-78
2024/01/17 12:14:49;;;;;;;19.88;15.02;;;;;;;;;;5046715;28;20014;-78
2024/01/17 12:17:16;;;;;;;25.55;17.73;;;;;;;;;;5046210;28;20032;-78
2024/01/17 12:19:43;;;;;;;20.27;15.60;;;;;;;;;;5046577;28;20044;-78
2024/01/17 12:22:09;;;;;;;17.75;14.60;;;;;;;;;;5032752;28;20052;-78
2024/01/17 12:24:37;;;;;;;20.20;14.77;;;;;;;;;;5045015;28;20017;-78
2024/01/17 12:27:06;;;;;;;23.40;15.93;;;;;;;;;;5044831;28;20814;-77
2024/01/17 12:29:32;;;;;;;21.20;15.10;;;;;;;;;;5047106;28;20497;-78
2024/01/17 12:31:59;;;;;;;19.67;16.08;;;;;;;;;;5044941;28;20009;-78
2024/01/17 12:34:25;;;;;;;20.15;17.45;;;;;;;;;;5046898;28;20028;-78
2024/01/17 12:36:51;;;;;;;22.65;17.38;;;;;;;;;;5046134;28;20037;-79
2024/01/17 12:39:17;;;;;;;21.52;15.57;;;;;;;;;;5048111;28;20025;-78
2024/01/17 12:41:43;;;;;;;18.48;14.57;;;;;;;;;;5047376;28;20083;-78
2024/01/17 12:44:09;;;;;;;21.38;15.85;;;;;;;;;;5047249;28;20064;-78
2024/01/17 12:46:35;;;;;;;20.63;15.10;;;;;;;;;;5047346;28;20127;-78
2024/01/17 12:49:02;;;;;;;21.02;14.80;;;;;;;;;;5048373;28;20023;-78
2024/01/17 12:51:29;;;;;;;20.92;15.45;;;;;;;;;;5045415;28;20033;-78
2024/01/17 12:53:56;;;;;;;22.23;15.00;;;;;;;;;;5045064;28;20017;-79
2024/01/17 12:56:22;;;;;;;19.08;14.85;;;;;;;;;;5043327;28;20025;-78
2024/01/17 12:58:49;;;;;;;21.23;13.90;;;;;;;;;;5037748;28;20023;-80
2024/01/17 13:01:16;;;;;;;18.83;13.38;;;;;;;;;;5045411;28;20022;-84
2024/01/17 13:03:44;;;;;;;22.40;13.77;;;;;;;;;;5038490;28;20484;-79
2024/01/17 13:06:12;;;;;;;17.83;13.13;;;;;;;;;;5034129;28;20083;-79
2024/01/17 13:08:38;;;;;;;22.45;14.18;;;;;;;;;;5041195;28;20026;-79
2024/01/17 13:11:14;;;;;;;21.27;15.02;;;;;;;;;;5039993;28;20392;-79
2024/01/17 13:13:40;;;;;;;18.98;13.93;;;;;;;;;;5044972;28;20101;-79
2024/01/17 13:16:06;;;;;;;20.17;14.55;;;;;;;;;;5044649;28;20233;-79
2024/01/17 13:18:33;;;;;;;19.75;14.75;;;;;;;;;;5046033;28;20028;-79
2024/01/17 13:21:11;;;;;;;18.52;14.15;;;;;;;;;;5052203;28;20024;-79
2024/01/17 13:23:38;;;;;;;20.15;14.73;;;;;;;;;;5046702;28;20049;-80
2024/01/17 13:26:04;;;;;;;18.90;13.75;;;;;;;;;;5050619;28;20036;-79
2024/01/17 13:28:31;;;;;;;21.02;14.70;;;;;;;;;;5050523;28;20104;-79
2024/01/17 13:30:57;;;;;;;20.30;13.85;;;;;;;;;;5049891;28;20080;-78
2024/01/17 13:33:24;;;;;;;23.65;14.18;;;;;;;;;;5048037;28;20037;-80
2024/01/17 13:35:53;;;;;;;21.10;14.52;;;;;;;;;;5046184;28;20045;-79
2024/01/17 13:38:25;;;;;;;22.65;14.57;;;;;;;;;;5046427;28;20045;-79
2024/01/17 13:40:51;;;;;;;19.70;14.65;;;;;;;;;;5050488;28;20024;-79
2024/01/17 13:43:17;;;;;;;19.98;14.50;;;;;;;;;;5051542;28;20032;-79
2024/01/17 13:45:43;;;;;;;22.90;14.15;;;;;;;;;;5051879;28;20082;-79
2024/01/17 13:48:09;;;;;;;20.13;13.82;;;;;;;;;;5039291;28;20397;-80
2024/01/17 13:50:35;;;;;;;22.25;14.73;;;;;;;;;;5049761;28;20029;-79
2024/01/17 13:53:08;;;;;;;22.35;14.77;;;;;;;;;;5049196;28;20016;-79
2024/01/17 13:55:34;;;;;;;20.52;14.98;;;;;;;;;;5051223;28;20028;-79
2024/01/17 13:58:00;;;;;;;22.83;15.07;;;;;;;;;;5050011;28;20414;-79
2024/01/17 14:00:26;;;;;;;18.70;14.68;;;;;;;;;;5049160;28;20165;-79
2024/01/17 14:02:58;;;;;;;21.45;14.23;;;;;;;;;;5049819;28;20013;-79
2024/01/17 14:05:29;;;;;;;23.58;15.15;;;;;;;;;;5048489;28;20039;-80
2024/01/17 14:07:54;;;;;;;18.70;15.05;;;;;;;;;;5047213;28;20367;-79
2024/01/17 14:10:20;;;;;;;22.48;14.55;;;;;;;;;;5048677;28;20532;-79
2024/01/17 14:12:47;;;;;;;23.50;15.38;;;;;;;;;;5049980;28;20014;-79
2024/01/17 14:15:13;;;;;;;19.00;14.57;;;;;;;;;;5050078;28;20489;-79